Time;durP1;ratioP1;P1;durP2;ratioP2;P2;SDS_P1;SDS_P2;PMS_P1;PMS_P2;Temp;Humidity;BMP_temperature;BMP_pressure;BME280_temperature;BME280_humidity;BME280_pressure;Samples;Min_cycle;Max_cycle;Signal;HPM_P1;HPM_P2
2023/05/01 00:00:24;;;;;;;4.70;2.10;;;8.50;1.00;;;;;;5064222;28;20180;-81
2023/05/01 00:02:49;;;;;;;2.63;2.10;;;8.50;99.90;;;;;;5068368;28;20211;-81
2023/05/01 00:05:15;;;;;;;3.60;1.90;;;8.50;1.00;;;;;;5073083;28;20174;-82
2023/05/01 00:07:41;;;;;;;2.90;2.10;;;8.40;1.00;;;;;;5073092;28;20173;-81
2023/05/01 00:10:07;;;;;;;3.00;2.00;;;8.40;99.90;;;;;;5074465;28;20240;-81
2023/05/01 00:12:32;;;;;;;3.83;2.10;;;8.40;99.90;;;;;;5072600;28;20682;-81
2023/05/01 00:14:58;;;;;;;4.13;2.37;;;8.40;1.00;;;;;;5072943;28;20180;-81
2023/05/01 00:17:23;;;;;;;4.27;2.57;;;8.40;1.00;;;;;;5074132;28;20186;-82
2023/05/01 00:19:53;;;;;;;4.57;2.17;;;8.40;1.00;;;;;;5072757;28;20235;-81
2023/05/01 00:22:18;;;;;;;5.37;2.60;;;8.30;99.90;;;;;;5071927;28;20241;-81
2023/05/01 00:24:47;;;;;;;4.10;2.60;;;8.20;1.00;;;;;;5051853;28;20546;-81
2023/05/01 00:27:13;;;;;;;3.93;2.63;;;8.00;1.00;;;;;;5052330;28;20612;-82
2023/05/01 00:29:39;;;;;;;3.10;2.50;;;8.10;1.00;;;;;;5054115;28;20659;-80
2023/05/01 00:32:05;;;;;;;5.13;3.10;;;8.00;99.90;;;;;;5053776;28;20204;-82
2023/05/01 00:34:31;;;;;;;3.97;2.23;;;8.10;1.00;;;;;;5052585;28;20180;-81
2023/05/01 00:36:57;;;;;;;4.23;2.70;;;8.10;1.00;;;;;;5052633;28;20176;-82
2023/05/01 00:39:23;;;;;;;3.10;2.40;;;8.20;1.00;;;;;;5052494;28;20209;-81
2023/05/01 00:41:49;;;;;;;6.20;2.63;;;8.20;99.90;;;;;;5053771;28;20204;-82
2023/05/01 00:44:15;;;;;;;4.83;2.70;;;8.00;1.00;;;;;;5052750;28;20534;-81
2023/05/01 00:46:42;;;;;;;3.43;2.60;;;8.20;1.00;;;;;;5052640;28;20228;-82
2023/05/01 00:49:08;;;;;;;3.00;2.50;;;8.30;99.90;;;;;;5054161;28;20617;-81
2023/05/01 00:51:35;;;;;;;4.40;2.53;;;8.20;99.90;;;;;;5053419;28;20187;-81
2023/05/01 00:54:02;;;;;;;3.50;2.53;;;8.10;99.90;;;;;;5053938;28;20186;-81
2023/05/01 00:56:30;;;;;;;3.93;3.03;;;8.10;99.90;;;;;;5052196;28;20223;-81
2023/05/01 00:58:55;;;;;;;4.07;2.33;;;8.10;99.90;;;;;;5053615;28;20208;-82
2023/05/01 01:01:21;;;;;;;4.80;2.60;;;8.00;99.90;;;;;;5052273;28;20214;-81
2023/05/01 01:03:47;;;;;;;3.23;2.37;;;8.00;1.00;;;;;;5053530;28;20519;-81
2023/05/01 01:06:32;;;;;;;3.10;2.20;;;8.10;99.90;;;;;;5053479;28;20179;-82
2023/05/01 01:09:11;;;;;;;2.83;2.30;;;8.20;99.90;;;;;;5069294;28;20224;-81
2023/05/01 01:12:00;;;;;;;3.37;2.47;;;8.00;99.90;;;;;;5052482;28;20284;-81
2023/05/01 01:14:33;;;;;;;3.07;2.60;;;8.00;1.00;;;;;;5053490;28;20162;-81
2023/05/01 01:17:12;;;;;;;4.60;2.70;;;8.00;1.00;;;;;;5053508;28;20600;-81
2023/05/01 01:20:12;;;;;;;2.63;2.20;;;8.00;1.00;;;;;;5052179;28;20202;-81
2023/05/01 01:22:42;;;;;;;4.73;2.50;;;7.90;58.50;;;;;;5053117;28;20194;-82
2023/05/01 01:25:14;;;;;;;4.30;2.33;;;7.90;1.00;;;;;;5053351;28;20170;-82
2023/05/01 01:28:26;;;;;;;3.20;2.20;;;7.90;1.00;;;;;;5068745;28;20181;-81
2023/05/01 01:31:09;;;;;;;3.40;2.17;;;7.80;1.00;;;;;;5068287;28;20195;-81
2023/05/01 01:33:41;;;;;;;3.27;2.50;;;7.70;1.00;;;;;;5052007;28;20167;-81
2023/05/01 01:36:11;;;;;;;4.77;2.47;;;7.60;1.00;;;;;;5068879;28;20181;-81
2023/05/01 01:38:45;;;;;;;4.63;2.83;;;7.60;1.00;;;;;;5057013;28;20191;-81
2023/05/01 01:41:27;;;;;;;2.37;2.17;;;7.70;1.00;;;;;;5056625;28;20589;-81
2023/05/01 01:44:01;;;;;;;4.23;2.50;;;7.60;1.00;;;;;;5072714;28;20186;-81
2023/05/01 01:46:27;;;;;;;3.07;2.23;;;7.60;1.00;;;;;;5055742;28;20207;-81
2023/05/01 01:48:56;;;;;;;3.47;2.67;;;7.60;1.00;;;;;;5056840;28;20562;-81
2023/05/01 01:51:25;;;;;;;2.83;2.13;;;7.50;64.00;;;;;;5055480;28;20201;-82
2023/05/01 01:53:55;;;;;;;3.50;2.40;;;7.40;99.90;;;;;;5056754;28;20176;-80
2023/05/01 01:56:25;;;;;;;3.83;2.57;;;7.30;1.00;;;;;;5056484;28;20182;-81
2023/05/01 01:58:52;;;;;;;2.83;2.30;;;7.30;1.00;;;;;;5056325;28;20289;-81
2023/05/01 02:01:19;;;;;;;5.03;2.23;;;7.30;1.00;;;;;;5062786;28;20232;-82
2023/05/01 02:03:46;;;;;;;4.47;2.50;;;7.30;1.00;;;;;;5058803;28;20173;-81
2023/05/01 02:06:13;;;;;;;3.60;2.50;;;7.20;1.00;;;;;;5058655;28;20203;-81
2023/05/01 02:08:40;;;;;;;4.93;2.37;;;7.20;1.00;;;;;;5076166;28;20211;-81
2023/05/01 02:11:06;;;;;;;4.17;2.30;;;7.20;99.90;;;;;;5076256;28;20196;-81
2023/05/01 02:13:33;;;;;;;3.40;2.30;;;7.20;1.00;;;;;;5076305;28;20186;-82
2023/05/01 02:16:01;;;;;;;2.77;2.33;;;7.20;1.00;;;;;;5058269;28;20181;-81
2023/05/01 02:18:28;;;;;;;3.67;2.67;;;7.10;1.00;;;;;;5076157;28;20283;-82
2023/05/01 02:20:57;;;;;;;2.63;2.30;;;7.10;1.00;;;;;;5076046;28;20195;-81
2023/05/01 02:23:25;;;;;;;2.73;2.07;;;7.20;99.90;;;;;;5076280;28;20188;-81
2023/05/01 02:25:52;;;;;;;4.97;2.50;;;7.10;1.00;;;;;;5058337;28;20177;-82
2023/05/01 02:28:22;;;;;;;3.57;2.40;;;7.00;1.00;;;;;;5075695;28;20185;-81
2023/05/01 02:30:47;;;;;;;3.23;2.30;;;6.90;1.00;;;;;;5058387;28;20205;-81
2023/05/01 02:33:13;;;;;;;3.83;2.30;;;6.90;1.00;;;;;;5075999;28;20188;-82
2023/05/01 02:35:46;;;;;;;3.93;2.70;;;6.70;1.00;;;;;;5076186;28;20230;-81
2023/05/01 02:38:15;;;;;;;3.73;2.50;;;6.80;99.90;;;;;;5057952;28;20236;-81
2023/05/01 02:40:45;;;;;;;3.77;2.60;;;6.80;1.00;;;;;;5075665;28;20204;-81
2023/05/01 02:43:15;;;;;;;3.27;2.20;;;6.80;1.00;;;;;;5057891;28;20217;-82
2023/05/01 02:45:41;;;;;;;3.23;2.20;;;7.00;1.00;;;;;;5058030;28;20180;-81
2023/05/01 02:48:09;;;;;;;4.07;2.30;;;6.90;1.00;;;;;;5056947;28;20177;-81
2023/05/01 02:50:39;;;;;;;3.33;2.23;;;6.80;1.00;;;;;;5075369;28;20212;-81
2023/05/01 02:53:06;;;;;;;4.87;2.57;;;6.70;1.00;;;;;;5057438;28;20704;-81
2023/05/01 02:55:32;;;;;;;3.10;2.40;;;6.60;99.90;;;;;;5075639;28;20233;-81
2023/05/01 02:57:58;;;;;;;5.47;2.70;;;6.60;99.90;;;;;;5075472;28;20255;-81
2023/05/01 03:00:25;;;;;;;4.00;2.30;;;6.60;1.00;;;;;;5075456;28;20210;-80
2023/05/01 03:02:51;;;;;;;3.47;2.30;;;6.50;99.90;;;;;;5057667;28;20300;-82
2023/05/01 03:05:16;;;;;;;3.27;2.27;;;6.50;1.00;;;;;;5075499;28;20188;-81
2023/05/01 03:07:42;;;;;;;3.80;2.40;;;6.50;1.00;;;;;;5057281;28;20651;-82
2023/05/01 03:10:08;;;;;;;3.87;2.23;;;6.60;99.90;;;;;;5056743;28;20225;-82
2023/05/01 03:12:33;;;;;;;5.07;2.97;;;6.50;99.90;;;;;;5075187;28;20204;-82
2023/05/01 03:14:59;;;;;;;3.13;2.27;;;6.50;1.00;;;;;;5075364;28;20223;-81
2023/05/01 03:17:25;;;;;;;4.40;2.40;;;6.50;99.90;;;;;;5075237;28;20263;-82
2023/05/01 03:19:51;;;;;;;3.43;2.67;;;6.50;99.90;;;;;;5075277;28;20208;-81
2023/05/01 03:22:17;;;;;;;4.60;2.40;;;6.60;1.00;;;;;;5056789;28;20195;-81
2023/05/01 03:24:43;;;;;;;3.33;2.50;;;6.60;99.90;;;;;;5057195;28;20177;-81
2023/05/01 03:27:08;;;;;;;2.93;2.23;;;6.60;99.90;;;;;;5074624;28;20180;-81
2023/05/01 03:29:36;;;;;;;4.10;2.37;;;6.60;99.90;;;;;;5057235;28;20310;-81
2023/05/01 03:32:02;;;;;;;3.07;2.40;;;6.50;99.90;;;;;;5056540;28;20290;-82
2023/05/01 03:34:28;;;;;;;3.97;2.50;;;6.50;99.90;;;;;;5056839;28;20634;-82
2023/05/01 03:36:54;;;;;;;4.17;2.50;;;6.40;1.00;;;;;;5056983;28;20179;-81
2023/05/01 03:39:19;;;;;;;2.73;2.20;;;6.40;99.90;;;;;;5056702;28;20203;-82
2023/05/01 03:41:45;;;;;;;4.30;2.80;;;6.40;1.00;;;;;;5074792;28;20570;-81
2023/05/01 03:44:10;;;;;;;2.50;2.30;;;6.30;1.00;;;;;;5056882;28;20184;-81
2023/05/01 03:46:36;;;;;;;4.50;2.53;;;6.40;1.00;;;;;;5074510;28;20203;-81
2023/05/01 03:49:01;;;;;;;3.00;2.40;;;6.30;1.00;;;;;;5074741;28;20180;-81
2023/05/01 03:51:27;;;;;;;3.20;2.57;;;6.40;1.00;;;;;;5056262;28;20204;-81
2023/05/01 03:53:55;;;;;;;3.17;2.57;;;6.30;1.00;;;;;;5074726;28;20183;-81
2023/05/01 03:56:21;;;;;;;3.50;2.40;;;6.30;1.00;;;;;;5056259;28;20189;-82
2023/05/01 03:58:46;;;;;;;5.93;2.77;;;6.20;1.00;;;;;;5074442;28;20200;-81
2023/05/01 04:01:12;;;;;;;5.13;2.43;;;6.10;1.00;;;;;;5056425;28;20240;-81
2023/05/01 04:03:38;;;;;;;3.93;2.50;;;6.10;1.00;;;;;;5056252;28;20172;-81
2023/05/01 04:06:04;;;;;;;3.60;2.57;;;6.20;1.00;;;;;;5074557;28;20169;-82
2023/05/01 04:08:29;;;;;;;2.93;2.27;;;6.20;1.00;;;;;;5074190;28;20607;-82
2023/05/01 04:10:55;;;;;;;3.97;2.63;;;6.20;1.00;;;;;;5074302;28;20209;-81
2023/05/01 04:13:21;;;;;;;5.20;2.60;;;6.20;1.00;;;;;;5056054;28;20291;-82
2023/05/01 04:15:46;;;;;;;4.67;2.23;;;6.30;1.00;;;;;;5056146;28;20208;-81
2023/05/01 04:18:12;;;;;;;3.20;2.50;;;6.30;1.00;;;;;;5073873;28;20677;-82
2023/05/01 04:20:39;;;;;;;4.10;2.40;;;6.30;1.00;;;;;;5055839;28;20167;-82
2023/05/01 04:23:04;;;;;;;4.97;2.73;;;6.20;1.00;;;;;;5055886;28;20167;-81
2023/05/01 04:25:30;;;;;;;3.20;2.57;;;6.30;1.00;;;;;;5074172;28;20178;-82
2023/05/01 04:27:56;;;;;;;3.23;2.40;;;6.40;1.00;;;;;;5055671;28;20169;-82
2023/05/01 04:30:21;;;;;;;2.70;2.30;;;6.40;99.90;;;;;;5055840;28;20172;-81
2023/05/01 04:32:47;;;;;;;3.07;2.60;;;6.50;1.00;;;;;;5056129;28;20172;-82
2023/05/01 04:35:12;;;;;;;4.20;2.80;;;6.40;99.90;;;;;;5073510;28;20237;-81
2023/05/01 04:37:38;;;;;;;5.37;2.93;;;6.40;1.00;;;;;;5073773;28;20173;-82
2023/05/01 04:40:04;;;;;;;4.00;2.50;;;6.30;1.00;;;;;;5055859;28;20196;-82
2023/05/01 04:42:31;;;;;;;3.70;2.73;;;6.30;1.00;;;;;;5073570;28;20190;-82
2023/05/01 04:44:56;;;;;;;3.20;2.40;;;6.40;1.00;;;;;;5073699;28;20199;-81
2023/05/01 04:47:22;;;;;;;2.57;2.30;;;6.40;1.00;;;;;;5056650;28;20187;-81
2023/05/01 04:49:48;;;;;;;4.43;2.40;;;6.40;1.00;;;;;;5055812;28;20346;-81
2023/05/01 04:52:13;;;;;;;4.97;2.87;;;6.50;1.00;;;;;;5073784;28;20199;-81
2023/05/01 04:54:39;;;;;;;5.43;3.10;;;6.50;1.00;;;;;;5055746;28;20188;-81
2023/05/01 04:57:05;;;;;;;2.53;2.30;;;6.60;1.00;;;;;;5073746;28;20198;-82
2023/05/01 04:59:30;;;;;;;4.90;2.63;;;6.70;1.00;;;;;;5072903;28;20208;-81
2023/05/01 05:01:56;;;;;;;3.47;2.80;;;6.80;1.00;;;;;;5145237;22;20230;-82
2023/05/01 05:04:22;;;;;;;4.13;2.40;;;6.90;1.00;;;;;;5110148;28;20170;-81
2023/05/01 05:06:47;;;;;;;4.03;3.03;;;6.90;1.00;;;;;;5115615;28;20178;-83
2023/05/01 05:09:13;;;;;;;4.00;2.70;;;6.90;1.00;;;;;;5114986;28;20175;-83
2023/05/01 05:11:40;;;;;;;3.27;2.43;;;7.00;1.00;;;;;;5115027;28;20278;-84
2023/05/01 05:14:05;;;;;;;3.63;2.83;;;7.10;1.00;;;;;;5117672;28;20171;-83
2023/05/01 05:16:31;;;;;;;3.10;2.40;;;7.30;1.00;;;;;;5117354;28;20214;-81
2023/05/01 05:18:57;;;;;;;2.60;2.13;;;7.30;1.00;;;;;;5119064;28;20245;-81
2023/05/01 05:21:22;;;;;;;3.40;2.67;;;7.80;99.90;;;;;;5117135;28;20195;-80
2023/05/01 05:23:48;;;;;;;4.93;2.67;;;8.40;99.90;;;;;;5105005;28;20257;-80
2023/05/01 05:26:13;;;;;;;3.00;2.50;;;9.00;99.90;;;;;;5117235;28;20168;-78
2023/05/01 05:28:39;;;;;;;5.13;2.60;;;9.40;1.00;;;;;;5117566;28;20178;-77
2023/05/01 05:31:05;;;;;;;4.00;2.57;;;9.70;99.90;;;;;;5116302;28;20185;-79
2023/05/01 05:33:30;;;;;;;4.67;3.00;;;9.90;1.00;;;;;;5117913;28;20265;-80
2023/05/01 05:35:58;;;;;;;4.70;2.80;;;9.90;1.00;;;;;;5117672;28;20179;-80
2023/05/01 05:38:23;;;;;;;4.43;2.87;;;9.60;99.90;;;;;;5117606;28;20259;-83
2023/05/01 05:40:49;;;;;;;3.70;3.07;;;9.30;99.90;;;;;;5119155;28;20633;-79
2023/05/01 05:43:15;;;;;;;4.13;3.20;;;9.10;99.90;;;;;;5117805;28;20189;-79
2023/05/01 05:45:40;;;;;;;6.37;3.13;;;8.90;1.00;;;;;;5117009;28;20284;-79
2023/05/01 05:48:06;;;;;;;4.67;3.37;;;8.90;99.90;;;;;;5119138;28;20182;-78
2023/05/01 05:50:31;;;;;;;4.50;3.17;;;8.90;99.90;;;;;;5118207;28;20176;-83
2023/05/01 05:52:57;;;;;;;3.37;3.07;;;8.80;1.00;;;;;;5116360;28;20201;-81
2023/05/01 05:55:22;;;;;;;4.30;3.17;;;8.70;1.00;;;;;;5116583;28;20206;-81
2023/05/01 05:57:48;;;;;;;4.90;3.30;;;8.70;99.90;;;;;;5116500;28;20536;-80
2023/05/01 06:00:14;;;;;;;4.03;3.10;;;8.80;99.90;;;;;;5117778;28;20616;-79
2023/05/01 06:02:40;;;;;;;4.03;3.13;;;8.90;99.90;;;;;;5115556;28;20214;-79
2023/05/01 06:05:06;;;;;;;4.83;3.30;;;9.00;99.90;;;;;;5117011;28;20175;-80
2023/05/01 06:07:31;;;;;;;3.47;3.03;;;9.00;1.00;;;;;;5112374;28;20183;-82
2023/05/01 06:10:04;;;;;;;3.97;2.87;;;9.10;99.90;;;;;;5104982;28;20178;-83
2023/05/01 06:12:30;;;;;;;5.47;3.50;;;9.10;1.00;;;;;;5119511;28;20323;-82
2023/05/01 06:14:56;;;;;;;5.17;3.30;;;9.20;1.00;;;;;;5119457;28;20178;-83
2023/05/01 06:17:29;;;;;;;4.20;3.40;;;9.10;99.90;;;;;;5121465;28;20654;-84
2023/05/01 06:19:54;;;;;;;4.80;3.57;;;9.10;99.90;;;;;;5118682;28;20235;-82
2023/05/01 06:22:20;;;;;;;5.33;2.97;;;9.20;1.00;;;;;;5121196;28;20219;-84
2023/05/01 06:24:46;;;;;;;5.27;3.83;;;9.30;1.00;;;;;;5119472;28;20230;-83
2023/05/01 06:27:11;;;;;;;6.77;3.30;;;9.20;1.00;;;;;;5121370;28;20179;-83
2023/05/01 06:29:37;;;;;;;5.87;3.40;;;9.30;1.00;;;;;;5137003;27;20178;-84
2023/05/01 06:32:03;;;;;;;5.63;3.70;;;9.40;1.00;;;;;;5136911;27;20613;-84
2023/05/01 06:34:29;;;;;;;5.70;3.73;;;9.30;99.90;;;;;;5136003;27;20210;-83
2023/05/01 06:36:55;;;;;;;5.20;3.53;;;9.40;1.00;;;;;;5122246;28;20167;-84
2023/05/01 06:39:20;;;;;;;3.80;3.40;;;9.50;1.00;;;;;;5122294;28;20194;-84
2023/05/01 06:41:46;;;;;;;5.37;3.40;;;9.50;1.00;;;;;;5123024;28;20193;-82
2023/05/01 06:44:12;;;;;;;6.33;3.40;;;9.50;1.00;;;;;;5121418;28;20184;-82
2023/05/01 06:46:37;;;;;;;6.43;3.60;;;9.50;1.00;;;;;;5139102;27;20555;-83
2023/05/01 06:49:03;;;;;;;5.33;3.70;;;9.50;1.00;;;;;;5121878;28;20622;-80
2023/05/01 06:51:30;;;;;;;5.23;3.70;;;9.50;1.00;;;;;;5121677;28;20335;-80
2023/05/01 06:53:56;;;;;;;5.43;3.53;;;9.60;99.90;;;;;;5138551;27;20174;-82
2023/05/01 06:56:21;;;;;;;6.23;4.00;;;9.80;1.00;;;;;;5137845;27;20262;-80
2023/05/01 06:58:47;;;;;;;7.07;4.30;;;9.80;99.90;;;;;;5118765;28;20698;-83
2023/05/01 07:01:13;;;;;;;6.40;4.30;;;10.00;1.00;;;;;;5119070;28;20174;-82
2023/05/01 07:03:38;;;;;;;4.70;3.97;;;10.20;1.00;;;;;;5136234;27;20170;-83
2023/05/01 07:06:04;;;;;;;6.67;4.10;;;10.20;1.00;;;;;;5134052;27;20199;-81
2023/05/01 07:08:30;;;;;;;4.97;4.07;;;10.30;1.00;;;;;;5118151;28;20176;-83
2023/05/01 07:10:56;;;;;;;4.70;3.73;;;10.30;99.90;;;;;;5120335;28;20176;-81
2023/05/01 07:13:21;;;;;;;5.47;4.10;;;10.40;1.00;;;;;;5130391;27;20185;-82
2023/05/01 07:15:47;;;;;;;7.73;4.40;;;10.60;1.00;;;;;;5138853;27;20165;-83
2023/05/01 07:18:13;;;;;;;5.97;4.40;;;10.70;1.00;;;;;;5139162;27;20181;-83
2023/05/01 07:20:39;;;;;;;5.33;4.20;;;10.90;1.00;;;;;;5141127;27;20200;-82
2023/05/01 07:23:05;;;;;;;5.40;4.07;;;11.00;1.00;;;;;;5139725;27;20187;-82
2023/05/01 07:25:31;;;;;;;5.73;4.50;;;11.10;99.90;;;;;;5138896;27;20167;-81
2023/05/01 07:27:59;;;;;;;6.80;4.73;;;11.20;1.00;;;;;;5138109;27;20250;-83
2023/05/01 07:30:25;;;;;;;5.00;4.50;;;11.40;99.90;;;;;;5138084;27;20219;-83
2023/05/01 07:32:51;;;;;;;6.67;4.63;;;11.50;99.90;;;;;;5137975;27;20554;-83
2023/05/01 07:35:17;;;;;;;5.60;4.30;;;11.60;1.00;;;;;;5140856;27;20251;-79
2023/05/01 07:37:43;;;;;;;4.40;4.00;;;11.70;99.90;;;;;;5142139;27;20218;-80
2023/05/01 07:40:09;;;;;;;5.97;4.73;;;11.90;99.90;;;;;;5140577;27;20235;-81
2023/05/01 07:42:35;;;;;;;6.00;4.40;;;11.90;99.90;;;;;;5139227;27;20191;-80
2023/05/01 07:45:00;;;;;;;5.27;4.53;;;12.00;1.00;;;;;;5120871;28;20164;-81
2023/05/01 07:47:26;;;;;;;5.00;4.20;;;12.10;99.90;;;;;;5121034;28;20222;-80
2023/05/01 07:49:52;;;;;;;6.93;4.73;;;12.20;1.00;;;;;;5119284;28;20172;-81
2023/05/01 07:52:17;;;;;;;7.10;4.80;;;12.20;1.00;;;;;;5120534;28;20274;-80
2023/05/01 07:54:47;;;;;;;5.93;4.73;;;12.30;1.00;;;;;;5118848;28;20175;-81
2023/05/01 07:57:13;;;;;;;5.67;4.93;;;12.40;1.00;;;;;;5119187;28;20181;-81
2023/05/01 07:59:38;;;;;;;7.33;5.00;;;12.50;1.00;;;;;;5119684;28;20199;-80
2023/05/01 08:02:04;;;;;;;6.27;4.90;;;12.60;1.00;;;;;;5120495;28;20225;-80
2023/05/01 08:04:30;;;;;;;7.07;4.80;;;12.70;99.90;;;;;;5115939;28;20167;-80
2023/05/01 08:06:56;;;;;;;6.57;5.10;;;12.60;99.90;;;;;;5115199;28;20167;-80
2023/05/01 08:09:21;;;;;;;6.60;4.63;;;12.70;1.00;;;;;;5115669;28;20225;-80
2023/05/01 08:11:47;;;;;;;6.63;4.90;;;12.80;1.00;;;;;;5115544;28;20210;-80
2023/05/01 08:14:12;;;;;;;5.13;4.63;;;12.90;99.90;;;;;;5114028;28;20191;-80
2023/05/01 08:16:38;;;;;;;8.87;5.03;;;13.00;1.00;;;;;;5115960;28;20172;-80
2023/05/01 08:19:03;;;;;;;7.80;5.60;;;13.10;1.00;;;;;;5114383;28;20219;-80
2023/05/01 08:21:30;;;;;;;5.40;4.53;;;13.20;1.00;;;;;;5113691;28;20233;-80
2023/05/01 08:23:55;;;;;;;6.83;5.23;;;13.40;1.00;;;;;;5114122;28;20163;-80
2023/05/01 08:26:21;;;;;;;6.33;4.63;;;13.50;1.00;;;;;;5115280;28;20168;-80
2023/05/01 08:28:47;;;;;;;6.57;4.83;;;13.60;1.00;;;;;;5114719;28;20232;-78
2023/05/01 08:31:13;;;;;;;5.70;4.93;;;13.70;99.90;;;;;;5114811;28;20172;-80
2023/05/01 08:33:40;;;;;;;6.83;5.00;;;13.70;99.90;;;;;;5113242;28;20656;-80
2023/05/01 08:36:08;;;;;;;6.23;4.87;;;13.70;99.90;;;;;;5115833;28;20176;-80
2023/05/01 08:38:35;;;;;;;6.60;5.13;;;13.70;99.90;;;;;;5108187;28;20211;-81
2023/05/01 08:41:02;;;;;;;6.13;5.20;;;13.90;99.90;;;;;;5115505;28;20172;-81
2023/05/01 08:43:29;;;;;;;5.50;4.90;;;14.10;99.90;;;;;;5117113;28;20179;-81
2023/05/01 08:45:57;;;;;;;6.33;4.97;;;14.30;1.00;;;;;;5114816;28;20175;-81
2023/05/01 08:48:24;;;;;;;6.13;5.00;;;14.50;1.00;;;;;;5116099;28;20589;-81
2023/05/01 08:50:53;;;;;;;8.20;4.63;;;14.60;1.00;;;;;;5132261;27;20168;-80
2023/05/01 08:53:19;;;;;;;5.63;4.60;;;14.70;99.90;;;;;;5115945;28;20237;-81
2023/05/01 08:55:47;;;;;;;5.40;4.30;;;14.80;1.00;;;;;;5117515;28;20175;-81
2023/05/01 08:58:14;;;;;;;6.43;5.10;;;14.80;1.00;;;;;;5117753;28;20171;-81
2023/05/01 09:00:40;;;;;;;5.50;4.47;;;14.90;1.00;;;;;;5132742;28;20540;-81
2023/05/01 09:03:10;;;;;;;6.53;4.80;;;14.90;1.00;;;;;;5133201;28;20208;-81
2023/05/01 09:05:35;;;;;;;6.83;4.90;;;15.00;1.00;;;;;;5117958;28;20603;-81
2023/05/01 09:08:02;;;;;;;6.40;4.43;;;15.10;1.00;;;;;;5133823;28;20654;-81
2023/05/01 09:10:28;;;;;;;5.77;4.30;;;15.30;99.90;;;;;;5116573;28;20174;-80
2023/05/01 09:13:00;;;;;;;6.40;4.23;;;15.30;99.90;;;;;;5117970;28;20213;-80
2023/05/01 09:15:27;;;;;;;5.97;4.40;;;15.30;1.00;;;;;;5117216;28;20163;-80
2023/05/01 09:17:53;;;;;;;6.23;4.60;;;15.40;1.00;;;;;;5134149;28;20178;-81
2023/05/01 09:20:19;;;;;;;5.57;4.40;;;15.50;1.00;;;;;;5132500;28;20243;-80
2023/05/01 09:22:45;;;;;;;6.23;4.50;;;15.50;1.00;;;;;;5129936;28;20183;-81
2023/05/01 09:25:11;;;;;;;5.73;4.40;;;15.50;1.00;;;;;;5138718;27;20170;-81
2023/05/01 09:27:37;;;;;;;5.03;4.10;;;15.70;1.00;;;;;;5137996;27;20643;-81
2023/05/01 09:30:05;;;;;;;6.67;4.30;;;15.50;1.00;;;;;;5129758;27;20179;-81
2023/05/01 09:32:31;;;;;;;6.47;4.60;;;15.50;1.00;;;;;;5115350;28;20188;-81
2023/05/01 09:35:13;;;;;;;5.93;4.10;;;15.70;1.00;;;;;;5113286;28;20174;-81
2023/05/01 09:37:39;;;;;;;7.83;4.53;;;15.70;1.00;;;;;;5115059;28;20168;-81
2023/05/01 09:40:11;;;;;;;5.60;4.40;;;15.80;1.00;;;;;;5114415;28;20288;-80
2023/05/01 09:42:39;;;;;;;6.07;4.60;;;15.80;1.00;;;;;;5114695;28;20194;-81
2023/05/01 09:45:15;;;;;;;4.57;3.73;;;15.90;1.00;;;;;;5115814;28;20200;-81
2023/05/01 09:47:44;;;;;;;4.67;3.97;;;16.00;1.00;;;;;;5115809;28;20206;-81
2023/05/01 09:50:27;;;;;;;5.13;3.93;;;16.00;1.00;;;;;;5117081;28;20172;-80
2023/05/01 09:52:52;;;;;;;4.30;3.90;;;16.10;1.00;;;;;;5118287;28;20187;-81
2023/05/01 09:55:18;;;;;;;4.03;3.50;;;16.20;1.00;;;;;;5118003;28;20513;-81
2023/05/01 09:57:45;;;;;;;5.67;3.90;;;16.30;1.00;;;;;;5119851;28;20652;-81
2023/05/01 10:00:13;;;;;;;4.10;3.70;;;16.40;1.00;;;;;;5119637;28;20206;-80
2023/05/01 10:02:44;;;;;;;4.63;4.13;;;16.30;1.00;;;;;;5120461;28;20227;-81
2023/05/01 10:05:10;;;;;;;4.77;3.90;;;16.20;1.00;;;;;;5120441;28;20175;-82
2023/05/01 10:07:36;;;;;;;4.17;3.67;;;16.20;1.00;;;;;;5121660;28;20179;-81
2023/05/01 10:10:21;;;;;;;4.37;3.50;;;16.30;1.00;;;;;;5121894;28;20231;-81
2023/05/01 10:12:47;;;;;;;4.40;4.00;;;16.40;1.00;;;;;;5120262;28;20215;-81
2023/05/01 10:15:14;;;;;;;4.50;3.50;;;16.50;1.00;;;;;;5120508;28;20642;-81
2023/05/01 10:17:41;;;;;;;5.27;4.03;;;16.40;1.00;;;;;;5120354;28;20680;-81
2023/05/01 10:20:08;;;;;;;5.40;4.63;;;16.40;1.00;;;;;;5120548;28;20234;-81
2023/05/01 10:22:34;;;;;;;3.93;3.53;;;16.50;1.00;;;;;;5120715;28;20195;-81
2023/05/01 10:25:00;;;;;;;8.70;6.30;;;16.50;1.00;;;;;;5121343;28;20195;-81
2023/05/01 10:27:26;;;;;;;6.10;5.13;;;16.60;1.00;;;;;;5120133;28;20708;-81
2023/05/01 10:29:52;;;;;;;4.97;3.80;;;16.60;1.00;;;;;;5121479;28;20171;-82
2023/05/01 10:32:20;;;;;;;4.90;3.60;;;16.70;1.00;;;;;;5121285;28;20195;-81
2023/05/01 10:34:56;;;;;;;5.20;3.87;;;16.80;1.00;;;;;;5124037;28;20171;-82
2023/05/01 10:37:28;;;;;;;4.23;3.83;;;17.00;1.00;;;;;;5123686;28;20171;-81
2023/05/01 10:39:54;;;;;;;5.43;3.83;;;17.20;1.00;;;;;;5123748;28;20203;-81
2023/05/01 10:42:19;;;;;;;4.60;3.63;;;17.20;1.00;;;;;;5122868;28;20192;-81
2023/05/01 10:44:46;;;;;;;4.53;3.10;;;17.30;1.00;;;;;;5123813;28;20183;-83
2023/05/01 10:47:27;;;;;;;3.50;3.03;;;17.20;99.90;;;;;;5124600;28;20168;-82
2023/05/01 10:50:06;;;;;;;4.33;3.60;;;17.20;99.90;;;;;;5123044;28;20167;-82
2023/05/01 10:53:10;;;;;;;4.07;3.47;;;17.00;99.90;;;;;;5123337;28;20256;-83
2023/05/01 10:55:36;;;;;;;3.50;3.20;;;17.00;99.90;;;;;;5124539;28;20179;-83
2023/05/01 10:58:02;;;;;;;4.10;3.30;;;17.10;1.00;;;;;;5124965;28;20557;-81
2023/05/01 11:00:28;;;;;;;4.00;3.57;;;17.10;1.00;;;;;;5124538;28;20210;-82
2023/05/01 11:03:20;;;;;;;3.67;3.20;;;17.10;1.00;;;;;;5127396;28;20247;-84
2023/05/01 11:06:15;;;;;;;4.17;3.10;;;17.00;1.00;;;;;;5120834;28;20160;-81
2023/05/01 11:08:41;;;;;;;3.27;2.83;;;17.00;99.90;;;;;;5102835;28;20184;-81
2023/05/01 11:11:18;;;;;;;5.43;3.00;;;17.00;99.90;;;;;;5116095;28;20309;-81
2023/05/01 11:14:04;;;;;;;3.17;2.87;;;16.90;99.90;;;;;;5116479;28;20642;-81
2023/05/01 11:16:36;;;;;;;3.37;2.87;;;16.80;99.90;;;;;;5116716;28;20274;-81
2023/05/01 11:19:02;;;;;;;4.63;3.00;;;16.60;99.90;;;;;;5118613;28;20685;-81
2023/05/01 11:21:32;;;;;;;3.63;3.27;;;16.60;99.90;;;;;;5116922;28;20232;-82
2023/05/01 11:24:02;;;;;;;4.93;3.70;;;16.60;99.90;;;;;;5118359;28;20167;-82
2023/05/01 11:26:28;;;;;;;3.70;2.90;;;16.70;99.90;;;;;;5118886;28;20180;-81
2023/05/01 11:28:56;;;;;;;3.83;3.20;;;16.70;1.00;;;;;;5118525;28;20187;-81
2023/05/01 11:31:23;;;;;;;3.63;3.10;;;16.70;99.90;;;;;;5118296;28;20575;-81
2023/05/01 11:33:48;;;;;;;3.97;3.57;;;16.70;1.00;;;;;;5116679;28;20179;-81
2023/05/01 11:36:14;;;;;;;3.77;3.23;;;16.60;1.00;;;;;;5116208;28;20175;-81
2023/05/01 11:38:55;;;;;;;4.47;3.47;;;16.60;1.00;;;;;;5117545;28;20207;-81
2023/05/01 11:41:25;;;;;;;4.63;3.50;;;16.60;1.00;;;;;;5116410;28;20744;-81
2023/05/01 11:43:55;;;;;;;4.87;3.40;;;16.70;1.00;;;;;;5117113;28;20172;-81
2023/05/01 11:46:28;;;;;;;3.40;3.10;;;16.80;1.00;;;;;;5116304;28;20168;-81
2023/05/01 11:48:58;;;;;;;4.50;3.60;;;16.70;1.00;;;;;;5118083;28;20179;-81
2023/05/01 11:51:25;;;;;;;5.03;3.53;;;16.70;1.00;;;;;;5117990;28;20234;-81
2023/05/01 11:54:01;;;;;;;4.53;3.77;;;16.70;1.00;;;;;;5116728;28;20175;-81
2023/05/01 11:56:27;;;;;;;4.07;3.67;;;16.70;1.00;;;;;;5116340;28;20186;-81
2023/05/01 11:58:54;;;;;;;5.60;3.67;;;16.70;1.00;;;;;;5117655;28;20200;-82
2023/05/01 12:01:19;;;;;;;4.33;3.30;;;16.60;1.00;;;;;;5115878;28;20196;-81
2023/05/01 12:03:45;;;;;;;3.53;3.20;;;16.60;1.00;;;;;;5117035;28;20241;-81
2023/05/01 12:06:12;;;;;;;4.83;3.60;;;16.40;1.00;;;;;;5116282;28;20168;-81
2023/05/01 12:08:44;;;;;;;4.00;3.40;;;16.50;1.00;;;;;;5117784;28;20228;-81
2023/05/01 12:11:10;;;;;;;4.10;3.70;;;16.50;1.00;;;;;;5115920;28;20195;-81
2023/05/01 12:13:37;;;;;;;4.17;3.50;;;16.50;1.00;;;;;;5118069;28;20179;-81
2023/05/01 12:16:03;;;;;;;9.03;4.23;;;16.50;1.00;;;;;;5118959;27;20207;-83
2023/05/01 12:18:29;;;;;;;4.17;3.50;;;16.50;1.00;;;;;;5117221;28;20211;-81
2023/05/01 12:20:55;;;;;;;3.70;3.40;;;16.60;1.00;;;;;;5115346;28;20182;-81
2023/05/01 12:23:36;;;;;;;3.67;3.30;;;16.70;1.00;;;;;;5116380;28;20175;-81
2023/05/01 12:26:14;;;;;;;4.20;3.70;;;16.70;1.00;;;;;;5117484;28;20199;-82
2023/05/01 12:28:55;;;;;;;3.90;3.50;;;16.70;1.00;;;;;;5116960;28;20175;-83
2023/05/01 12:31:22;;;;;;;3.60;3.30;;;16.70;1.00;;;;;;5116003;28;20577;-81
2023/05/01 12:33:57;;;;;;;4.33;3.47;;;16.60;1.00;;;;;;5117074;28;20175;-81
2023/05/01 12:36:24;;;;;;;3.80;3.30;;;16.70;1.00;;;;;;5117513;28;20163;-81
2023/05/01 12:39:10;;;;;;;5.70;3.67;;;16.60;1.00;;;;;;5117403;28;20289;-82
2023/05/01 12:41:39;;;;;;;3.50;3.20;;;16.70;1.00;;;;;;5118764;28;20237;-81
2023/05/01 12:44:34;;;;;;;3.87;3.47;;;16.70;1.00;;;;;;5119982;28;20255;-82
2023/05/01 12:47:06;;;;;;;4.13;3.43;;;16.70;1.00;;;;;;5104386;28;20265;-81
2023/05/01 12:49:32;;;;;;;4.00;3.57;;;16.70;1.00;;;;;;5117392;28;20168;-81
2023/05/01 12:51:59;;;;;;;3.83;3.47;;;16.80;1.00;;;;;;5118606;28;20617;-81
2023/05/01 12:54:36;;;;;;;4.70;3.67;;;16.90;1.00;;;;;;5120333;28;20175;-80
2023/05/01 12:57:07;;;;;;;4.03;3.40;;;16.90;1.00;;;;;;5117845;28;20179;-81
2023/05/01 12:59:35;;;;;;;4.17;3.67;;;16.90;1.00;;;;;;5108986;27;20230;-83
2023/05/01 13:02:02;;;;;;;4.37;3.40;;;16.90;1.00;;;;;;5142309;27;20672;-81
2023/05/01 13:04:28;;;;;;;4.63;3.70;;;16.80;1.00;;;;;;5143066;28;20171;-81